48061 UUMB-ULAA
Flight info
| Callsign | 48061 |
|---|---|
| Flight time | N/A |
| Altitude | 39000 |
| Route | RILPO3H RILPO T753 DEGOP/K0857F380 T747 TIPNA P988 GITOT/K0861F390 P988 RUPAD T825 ABELU ABELU3M |
| Aircraft | IL76/H-SDFGHIM1RTUWXY/LB1 |
Departure
| Time | N/A |
|---|---|
| Airport | UUMB |
Arrival
| Time | 2026-04-30 20:04 |
|---|---|
| Airport | Talagi Airport (ULAA) |
| Time | Latitude | Longitude | Altitude | Speed | Heading |
|---|---|---|---|---|---|
| 2026-04-30 10:50 | 55.60365 | 36.63118 | 622 ft | 0 kts | 53° |
| 2026-04-30 10:50 | 55.60455 | 36.63314 | 622 ft | 57 kts | 49° |
| 2026-04-30 10:50 | 55.60891 | 36.64247 | 623 ft | 138 kts | 50° |
| 2026-04-30 10:50 | 55.61639 | 36.65773 | 1120 ft | 178 kts | 43° |
| 2026-04-30 10:51 | 55.62013 | 36.66374 | 1560 ft | 180 kts | 38° |
| 2026-04-30 10:51 | 55.63028 | 36.67444 | 2027 ft | 216 kts | 23° |
| 2026-04-30 10:51 | 55.64506 | 36.68687 | 2658 ft | 251 kts | 24° |
| 2026-04-30 10:52 | 55.66206 | 36.69437 | 3248 ft | 259 kts | 356° |
| 2026-04-30 10:52 | 55.68023 | 36.69543 | 3870 ft | 271 kts | 13° |
| 2026-04-30 10:52 | 55.69755 | 36.70674 | 4546 ft | 279 kts | 21° |
| 2026-04-30 10:52 | 55.71493 | 36.72043 | 5274 ft | 281 kts | 22° |
| 2026-04-30 10:53 | 55.73234 | 36.73441 | 6091 ft | 285 kts | 22° |
| 2026-04-30 10:53 | 55.75049 | 36.74899 | 7094 ft | 287 kts | 22° |
| 2026-04-30 10:53 | 55.76873 | 36.76369 | 8075 ft | 294 kts | 22° |
| 2026-04-30 10:53 | 55.78820 | 36.77366 | 9054 ft | 297 kts | 8° |
| 2026-04-30 10:54 | 55.80843 | 36.78054 | 10029 ft | 306 kts | 8° |
| 2026-04-30 10:54 | 55.82936 | 36.78765 | 11010 ft | 309 kts | 8° |
| 2026-04-30 10:54 | 55.85036 | 36.79485 | 11984 ft | 314 kts | 8° |
| 2026-04-30 10:54 | 55.87173 | 36.80219 | 12959 ft | 318 kts | 8° |
| 2026-04-30 10:55 | 55.89338 | 36.80964 | 13933 ft | 323 kts | 8° |
| 2026-04-30 10:55 | 55.91547 | 36.81724 | 14914 ft | 327 kts | 8° |
| 2026-04-30 10:55 | 55.93776 | 36.82493 | 15890 ft | 331 kts | 8° |
| 2026-04-30 10:55 | 55.96036 | 36.83274 | 16867 ft | 336 kts | 8° |
| 2026-04-30 10:56 | 55.98331 | 36.84067 | 17846 ft | 340 kts | 8° |
| 2026-04-30 10:56 | 56.00658 | 36.84873 | 18825 ft | 345 kts | 8° |
| 2026-04-30 10:56 | 56.02981 | 36.85677 | 19788 ft | 349 kts | 8° |
| 2026-04-30 10:56 | 56.05382 | 36.86511 | 20771 ft | 354 kts | 8° |
| 2026-04-30 10:57 | 56.07794 | 36.87349 | 21745 ft | 359 kts | 8° |
| 2026-04-30 10:57 | 56.10217 | 36.88191 | 22709 ft | 364 kts | 8° |
| 2026-04-30 10:57 | 56.12732 | 36.89068 | 23703 ft | 369 kts | 8° |
| 2026-04-30 10:57 | 56.15227 | 36.89938 | 24675 ft | 374 kts | 8° |
| 2026-04-30 10:58 | 56.17778 | 36.90829 | 25654 ft | 380 kts | 8° |
| 2026-04-30 10:58 | 56.20362 | 36.91732 | 26632 ft | 385 kts | 8° |
| 2026-04-30 10:58 | 56.23001 | 36.92657 | 27618 ft | 391 kts | 8° |
| 2026-04-30 10:58 | 56.25699 | 36.93601 | 28605 ft | 403 kts | 8° |
| 2026-04-30 10:59 | 56.28468 | 36.94574 | 29359 ft | 413 kts | 9° |
| 2026-04-30 10:59 | 56.31278 | 36.95564 | 30112 ft | 418 kts | 8° |
| 2026-04-30 10:59 | 56.34115 | 36.96564 | 30865 ft | 422 kts | 9° |
| 2026-04-30 10:59 | 56.36984 | 36.97577 | 31618 ft | 427 kts | 9° |
| 2026-04-30 11:00 | 56.39899 | 36.98607 | 32375 ft | 431 kts | 9° |
| 2026-04-30 11:00 | 56.42846 | 36.99649 | 33131 ft | 435 kts | 9° |
| 2026-04-30 11:00 | 56.45815 | 37.00703 | 33887 ft | 440 kts | 9° |
| 2026-04-30 11:00 | 56.48815 | 37.01768 | 34642 ft | 445 kts | 9° |
| 2026-04-30 11:01 | 56.51841 | 37.02844 | 35396 ft | 450 kts | 9° |
| 2026-04-30 11:01 | 56.54920 | 37.03941 | 36154 ft | 456 kts | 9° |
| 2026-04-30 11:01 | 56.58040 | 37.05055 | 36910 ft | 463 kts | 9° |
| 2026-04-30 11:01 | 56.61210 | 37.06187 | 37668 ft | 470 kts | 9° |
| 2026-04-30 11:02 | 56.64439 | 37.07344 | 38427 ft | 478 kts | 9° |
| 2026-04-30 11:02 | 56.67699 | 37.08514 | 39184 ft | 485 kts | 9° |
| 2026-04-30 11:02 | 56.71025 | 37.09709 | 39943 ft | 491 kts | 9° |
| 2026-04-30 11:02 | 56.74358 | 37.10910 | 40684 ft | 494 kts | 9° |
| 2026-04-30 11:03 | 56.77714 | 37.12120 | 41425 ft | 494 kts | 9° |
| 2026-04-30 11:03 | 56.81041 | 37.13321 | 42163 ft | 493 kts | 9° |
| 2026-04-30 11:03 | 56.84387 | 37.14534 | 42906 ft | 491 kts | 9° |
| 2026-04-30 11:04 | 56.91014 | 37.16937 | 44304 ft | 491 kts | 9° |
| 2026-04-30 11:04 | 56.94422 | 37.18177 | 43853 ft | 505 kts | 9° |
| 2026-04-30 11:04 | 56.97866 | 37.19436 | 43341 ft | 509 kts | 9° |
| 2026-04-30 11:04 | 57.01342 | 37.20708 | 42839 ft | 512 kts | 9° |
| 2026-04-30 11:05 | 57.04808 | 37.21977 | 42339 ft | 514 kts | 9° |
| 2026-04-30 11:05 | 57.08295 | 37.23254 | 41841 ft | 517 kts | 9° |
| 2026-04-30 11:05 | 57.11813 | 37.24547 | 41345 ft | 520 kts | 9° |
| 2026-04-30 11:05 | 57.15407 | 37.25868 | 40891 ft | 519 kts | 9° |
| 2026-04-30 11:06 | 57.18890 | 37.27155 | 41023 ft | 516 kts | 8° |
| 2026-04-30 11:06 | 57.25917 | 37.29751 | 41019 ft | 515 kts | 9° |
| 2026-04-30 11:07 | 57.32899 | 37.32344 | 41021 ft | 516 kts | 9° |
| 2026-04-30 11:07 | 57.39879 | 37.34948 | 41018 ft | 515 kts | 9° |
| 2026-04-30 11:08 | 57.46919 | 37.37583 | 41016 ft | 516 kts | 8° |
| 2026-04-30 11:08 | 57.53885 | 37.40199 | 41018 ft | 516 kts | 9° |
| 2026-04-30 11:09 | 57.60929 | 37.42858 | 41023 ft | 515 kts | 9° |
| 2026-04-30 11:09 | 57.67887 | 37.45491 | 40997 ft | 516 kts | 9° |
| 2026-04-30 11:10 | 57.74929 | 37.48169 | 40977 ft | 516 kts | 9° |
| 2026-04-30 11:10 | 57.81921 | 37.50838 | 40967 ft | 516 kts | 9° |
| 2026-04-30 11:11 | 57.88905 | 37.53516 | 40958 ft | 516 kts | 8° |
| 2026-04-30 11:11 | 57.95922 | 37.56215 | 40957 ft | 516 kts | 8° |
| 2026-04-30 11:12 | 58.02925 | 37.58920 | 40957 ft | 516 kts | 9° |
| 2026-04-30 11:12 | 58.09897 | 37.61624 | 40965 ft | 516 kts | 9° |
| 2026-04-30 11:13 | 58.16927 | 37.64361 | 40972 ft | 516 kts | 9° |
| 2026-04-30 11:13 | 58.23929 | 37.67098 | 40963 ft | 516 kts | 9° |
| 2026-04-30 11:14 | 58.30924 | 37.69844 | 40965 ft | 516 kts | 9° |
| 2026-04-30 11:14 | 58.37895 | 37.72591 | 40968 ft | 516 kts | 9° |
| 2026-04-30 11:15 | 58.44923 | 37.75374 | 40968 ft | 516 kts | 9° |
| 2026-04-30 11:15 | 58.51897 | 37.78144 | 40959 ft | 516 kts | 9° |
| 2026-04-30 11:16 | 58.58877 | 37.80930 | 40962 ft | 515 kts | 9° |
| 2026-04-30 11:16 | 58.65878 | 37.83733 | 40962 ft | 516 kts | 9° |
| 2026-04-30 11:17 | 58.72893 | 37.86553 | 40968 ft | 516 kts | 9° |
| 2026-04-30 11:17 | 58.79894 | 37.89382 | 40964 ft | 516 kts | 9° |
| 2026-04-30 11:18 | 58.86856 | 37.92207 | 40962 ft | 516 kts | 9° |
| 2026-04-30 11:18 | 58.97426 | 37.96518 | 40957 ft | 521 kts | 9° |
| 2026-04-30 11:19 | 59.04534 | 37.99430 | 40965 ft | 528 kts | 9° |
| 2026-04-30 11:19 | 59.11692 | 38.02373 | 40966 ft | 530 kts | 9° |
| 2026-04-30 11:20 | 59.18859 | 38.05336 | 40965 ft | 530 kts | 9° |
| 2026-04-30 11:20 | 59.26047 | 38.08320 | 40971 ft | 529 kts | 9° |
| 2026-04-30 11:21 | 59.33225 | 38.11314 | 40963 ft | 530 kts | 9° |
| 2026-04-30 11:21 | 59.40427 | 38.14327 | 40968 ft | 529 kts | 9° |
| 2026-04-30 11:22 | 59.47552 | 38.17325 | 40972 ft | 529 kts | 9° |
| 2026-04-30 11:22 | 59.54736 | 38.20358 | 40967 ft | 529 kts | 9° |
| 2026-04-30 11:23 | 59.61887 | 38.23389 | 40967 ft | 529 kts | 9° |
| 2026-04-30 11:24 | 59.72686 | 38.27995 | 40962 ft | 530 kts | 9° |
| 2026-04-30 11:24 | 59.79853 | 38.31071 | 40969 ft | 530 kts | 9° |
| 2026-04-30 11:25 | 59.90623 | 38.35714 | 40967 ft | 530 kts | 9° |
| 2026-04-30 11:26 | 60.04994 | 38.41959 | 40969 ft | 531 kts | 9° |
| 2026-04-30 11:26 | 60.12133 | 38.45086 | 40969 ft | 530 kts | 9° |
| 2026-04-30 11:27 | 60.19303 | 38.48235 | 40968 ft | 530 kts | 9° |
| 2026-04-30 11:27 | 60.26495 | 38.51411 | 40967 ft | 530 kts | 9° |
| 2026-04-30 11:28 | 60.37240 | 38.56177 | 40966 ft | 531 kts | 9° |
| 2026-04-30 11:29 | 60.44437 | 38.59394 | 40962 ft | 530 kts | 9° |
| 2026-04-30 11:29 | 60.55161 | 38.64206 | 40972 ft | 530 kts | 9° |
| 2026-04-30 11:30 | 60.65965 | 38.69089 | 40965 ft | 530 kts | 10° |
| 2026-04-30 11:31 | 60.73111 | 38.72338 | 40967 ft | 530 kts | 10° |
| 2026-04-30 11:31 | 60.80262 | 38.75602 | 40966 ft | 530 kts | 10° |
| 2026-04-30 11:32 | 60.87458 | 38.78906 | 40964 ft | 530 kts | 10° |
| 2026-04-30 11:32 | 60.94603 | 38.82200 | 40960 ft | 530 kts | 10° |
| 2026-04-30 11:33 | 61.05372 | 38.87190 | 40962 ft | 531 kts | 10° |
| 2026-04-30 11:33 | 61.07647 | 38.88248 | 40958 ft | 530 kts | 10° |
| 2026-04-30 19:22 | 61.07764 | 38.88303 | 40957 ft | 530 kts | 10° |
| 2026-04-30 19:23 | 61.19157 | 38.93635 | 40943 ft | 528 kts | 10° |
| 2026-04-30 19:24 | 61.29876 | 38.98632 | 40935 ft | 524 kts | 9° |
| 2026-04-30 19:25 | 61.47585 | 39.06179 | 40942 ft | 520 kts | 9° |
| 2026-04-30 19:26 | 61.61620 | 39.12216 | 40940 ft | 517 kts | 9° |
| 2026-04-30 19:27 | 61.72139 | 39.16777 | 40939 ft | 516 kts | 9° |
| 2026-04-30 19:28 | 61.82639 | 39.21358 | 40932 ft | 516 kts | 9° |
| 2026-04-30 19:29 | 61.96645 | 39.27521 | 40918 ft | 517 kts | 9° |
| 2026-04-30 19:30 | 62.10625 | 39.33738 | 40861 ft | 516 kts | 9° |
| 2026-04-30 19:31 | 62.24623 | 39.40013 | 40856 ft | 516 kts | 9° |
| 2026-04-30 19:31 | 62.35099 | 39.44753 | 40861 ft | 515 kts | 9° |
| 2026-04-30 19:32 | 62.42089 | 39.47935 | 40861 ft | 516 kts | 9° |
| 2026-04-30 19:32 | 62.49109 | 39.51141 | 40868 ft | 516 kts | 9° |
| 2026-04-30 19:33 | 62.56119 | 39.54361 | 40861 ft | 515 kts | 9° |
| 2026-04-30 19:33 | 62.63082 | 39.57576 | 40856 ft | 515 kts | 9° |
| 2026-04-30 19:34 | 62.70087 | 39.60822 | 40856 ft | 516 kts | 9° |
| 2026-04-30 19:35 | 62.80436 | 39.65658 | 40857 ft | 490 kts | 10° |
| 2026-04-30 19:35 | 62.83706 | 39.67188 | 40848 ft | 477 kts | 10° |
| 2026-04-30 19:35 | 62.86925 | 39.68700 | 40426 ft | 477 kts | 10° |
| 2026-04-30 19:35 | 62.90157 | 39.70223 | 39928 ft | 475 kts | 10° |
| 2026-04-30 19:36 | 62.93340 | 39.71721 | 39429 ft | 473 kts | 9° |
| 2026-04-30 19:36 | 62.96570 | 39.73251 | 38914 ft | 472 kts | 10° |
| 2026-04-30 19:36 | 63.02937 | 39.76274 | 37916 ft | 470 kts | 10° |
| 2026-04-30 19:37 | 63.06122 | 39.77790 | 37407 ft | 469 kts | 10° |
| 2026-04-30 19:37 | 63.09272 | 39.79293 | 36901 ft | 468 kts | 9° |
| 2026-04-30 19:37 | 63.12462 | 39.80820 | 36410 ft | 467 kts | 10° |
| 2026-04-30 19:37 | 63.15623 | 39.82334 | 35918 ft | 467 kts | 9° |
| 2026-04-30 19:38 | 63.18769 | 39.83844 | 35423 ft | 466 kts | 10° |
| 2026-04-30 19:38 | 63.21899 | 39.85354 | 34927 ft | 465 kts | 9° |
| 2026-04-30 19:38 | 63.25047 | 39.86870 | 34435 ft | 465 kts | 10° |
| 2026-04-30 19:38 | 63.28193 | 39.88396 | 33936 ft | 464 kts | 10° |
| 2026-04-30 19:39 | 63.31345 | 39.89921 | 33447 ft | 464 kts | 10° |
| 2026-04-30 19:39 | 63.34472 | 39.91444 | 32951 ft | 464 kts | 9° |
| 2026-04-30 19:39 | 63.37634 | 39.92976 | 32453 ft | 463 kts | 10° |
| 2026-04-30 19:39 | 63.40738 | 39.94498 | 31953 ft | 463 kts | 10° |
| 2026-04-30 19:40 | 63.43873 | 39.96038 | 31458 ft | 462 kts | 11° |
| 2026-04-30 19:40 | 63.46967 | 39.98152 | 30950 ft | 463 kts | 15° |
| 2026-04-30 19:40 | 63.49983 | 40.00407 | 30453 ft | 463 kts | 16° |
| 2026-04-30 19:40 | 63.53045 | 40.02731 | 29958 ft | 462 kts | 16° |
| 2026-04-30 19:41 | 63.56064 | 40.05024 | 29460 ft | 462 kts | 16° |
| 2026-04-30 19:41 | 63.59101 | 40.07338 | 28960 ft | 461 kts | 16° |
| 2026-04-30 19:41 | 63.62088 | 40.09615 | 28464 ft | 460 kts | 16° |
| 2026-04-30 19:41 | 63.65111 | 40.11933 | 28017 ft | 458 kts | 16° |
| 2026-04-30 19:42 | 63.68103 | 40.14227 | 27676 ft | 454 kts | 16° |
| 2026-04-30 19:42 | 63.71107 | 40.16536 | 27199 ft | 452 kts | 16° |
| 2026-04-30 19:42 | 63.73981 | 40.19149 | 26757 ft | 453 kts | 25° |
| 2026-04-30 19:42 | 63.76746 | 40.22525 | 26346 ft | 451 kts | 26° |
| 2026-04-30 19:43 | 63.79486 | 40.25949 | 25963 ft | 448 kts | 26° |
| 2026-04-30 19:43 | 63.82163 | 40.29305 | 25579 ft | 445 kts | 26° |
| 2026-04-30 19:43 | 63.84852 | 40.32688 | 25154 ft | 443 kts | 26° |
| 2026-04-30 19:44 | 63.90182 | 40.39421 | 24326 ft | 438 kts | 26° |
| 2026-04-30 19:44 | 63.92812 | 40.42749 | 23873 ft | 429 kts | 26° |
| 2026-04-30 19:44 | 63.95231 | 40.45831 | 23054 ft | 367 kts | 26° |
| 2026-04-30 19:44 | 63.97298 | 40.48469 | 22226 ft | 322 kts | 26° |
| 2026-04-30 19:45 | 63.99215 | 40.50902 | 21353 ft | 313 kts | 26° |
| 2026-04-30 19:45 | 64.01095 | 40.53292 | 20467 ft | 306 kts | 26° |
| 2026-04-30 19:45 | 64.02915 | 40.55614 | 19592 ft | 301 kts | 26° |
| 2026-04-30 19:45 | 64.04721 | 40.57923 | 18714 ft | 297 kts | 26° |
| 2026-04-30 19:46 | 64.06479 | 40.60174 | 17849 ft | 294 kts | 26° |
| 2026-04-30 19:46 | 64.08251 | 40.62447 | 16960 ft | 290 kts | 26° |
| 2026-04-30 19:46 | 64.09986 | 40.64676 | 16058 ft | 287 kts | 26° |
| 2026-04-30 19:46 | 64.11697 | 40.66879 | 15159 ft | 283 kts | 27° |
| 2026-04-30 19:47 | 64.13390 | 40.69060 | 14260 ft | 280 kts | 27° |
| 2026-04-30 19:47 | 64.14520 | 40.70519 | 13653 ft | 278 kts | 27° |
| 2026-04-30 19:47 | 64.16734 | 40.73380 | 12331 ft | 279 kts | 28° |
| 2026-04-30 19:47 | 64.18407 | 40.75544 | 11332 ft | 278 kts | 28° |
| 2026-04-30 19:48 | 64.20065 | 40.77695 | 10336 ft | 276 kts | 28° |
| 2026-04-30 19:48 | 64.21692 | 40.79807 | 9351 ft | 274 kts | 28° |
| 2026-04-30 19:48 | 64.23328 | 40.81932 | 8364 ft | 270 kts | 28° |
| 2026-04-30 19:48 | 64.24919 | 40.84005 | 7618 ft | 259 kts | 28° |
| 2026-04-30 19:49 | 64.26444 | 40.85992 | 6998 ft | 249 kts | 28° |
| 2026-04-30 19:49 | 64.29146 | 40.89521 | 5795 ft | 206 kts | 28° |
| 2026-04-30 19:49 | 64.30321 | 40.91059 | 5194 ft | 191 kts | 28° |
| 2026-04-30 19:50 | 64.31461 | 40.92548 | 4733 ft | 187 kts | 28° |
| 2026-04-30 19:50 | 64.32591 | 40.94029 | 4640 ft | 187 kts | 29° |
| 2026-04-30 19:50 | 64.33732 | 40.95526 | 4620 ft | 188 kts | 29° |
| 2026-04-30 19:50 | 64.34860 | 40.97007 | 4597 ft | 189 kts | 29° |
| 2026-04-30 19:51 | 64.36010 | 40.98518 | 4573 ft | 189 kts | 29° |
| 2026-04-30 19:51 | 64.37154 | 41.00023 | 4548 ft | 189 kts | 29° |
| 2026-04-30 19:51 | 64.38291 | 41.01520 | 4505 ft | 189 kts | 29° |
| 2026-04-30 19:51 | 64.39428 | 41.03017 | 4472 ft | 188 kts | 29° |
| 2026-04-30 19:52 | 64.40554 | 41.04504 | 4473 ft | 188 kts | 29° |
| 2026-04-30 19:52 | 64.41700 | 41.06016 | 4473 ft | 188 kts | 29° |
| 2026-04-30 19:52 | 64.42831 | 41.07510 | 4473 ft | 188 kts | 29° |
| 2026-04-30 19:52 | 64.43964 | 41.08993 | 4472 ft | 188 kts | 26° |
| 2026-04-30 19:53 | 64.45241 | 41.09226 | 4379 ft | 188 kts | 343° |
| 2026-04-30 19:53 | 64.46361 | 41.07756 | 4148 ft | 187 kts | 326° |
| 2026-04-30 19:53 | 64.47472 | 41.06181 | 3975 ft | 187 kts | 331° |
| 2026-04-30 19:53 | 64.48631 | 41.04800 | 3993 ft | 186 kts | 335° |
| 2026-04-30 19:54 | 64.49782 | 41.03437 | 3953 ft | 184 kts | 335° |
| 2026-04-30 19:54 | 64.51041 | 41.03234 | 4192 ft | 187 kts | 0° |
| 2026-04-30 19:54 | 64.52345 | 41.03227 | 4284 ft | 188 kts | 0° |
| 2026-04-30 19:54 | 64.53648 | 41.03480 | 4298 ft | 187 kts | 4° |
| 2026-04-30 19:55 | 64.54932 | 41.03712 | 4346 ft | 170 kts | 1° |
| 2026-04-30 19:55 | 64.56048 | 41.03340 | 4085 ft | 160 kts | 338° |
| 2026-04-30 19:55 | 64.56898 | 41.01806 | 3764 ft | 156 kts | 314° |
| 2026-04-30 19:55 | 64.57552 | 40.99803 | 3480 ft | 155 kts | 304° |
| 2026-04-30 19:56 | 64.58151 | 40.97724 | 3460 ft | 155 kts | 302° |
| 2026-04-30 19:56 | 64.58566 | 40.95389 | 3238 ft | 157 kts | 286° |
| 2026-04-30 19:56 | 64.58804 | 40.92921 | 2990 ft | 156 kts | 283° |
| 2026-04-30 19:56 | 64.59290 | 40.90754 | 2691 ft | 155 kts | 319° |
| 2026-04-30 19:57 | 64.60275 | 40.89978 | 2384 ft | 154 kts | 2° |
| 2026-04-30 19:57 | 64.61225 | 40.90982 | 1980 ft | 153 kts | 48° |
| 2026-04-30 19:57 | 64.61572 | 40.93268 | 1925 ft | 153 kts | 92° |
| 2026-04-30 19:57 | 64.61129 | 40.95502 | 1923 ft | 155 kts | 135° |
| 2026-04-30 19:58 | 64.60293 | 40.97086 | 1959 ft | 156 kts | 141° |
| 2026-04-30 19:58 | 64.59441 | 40.98638 | 2009 ft | 156 kts | 142° |
| 2026-04-30 19:58 | 64.58619 | 41.00279 | 2065 ft | 156 kts | 127° |
| 2026-04-30 19:58 | 64.58343 | 41.02643 | 2142 ft | 155 kts | 88° |
| 2026-04-30 19:59 | 64.58319 | 41.05176 | 2232 ft | 155 kts | 93° |
| 2026-04-30 19:59 | 64.58291 | 41.07665 | 2289 ft | 155 kts | 78° |
| 2026-04-30 19:59 | 64.59906 | 41.10112 | 2351 ft | 153 kts | 347° |
| 2026-04-30 20:00 | 64.60767 | 41.08725 | 2428 ft | 155 kts | 304° |
| 2026-04-30 20:00 | 64.60984 | 41.06332 | 2390 ft | 156 kts | 261° |
| 2026-04-30 20:00 | 64.60472 | 41.04125 | 2323 ft | 157 kts | 232° |
| 2026-04-30 20:00 | 64.59795 | 41.02143 | 2225 ft | 156 kts | 232° |
| 2026-04-30 20:01 | 64.58690 | 40.97899 | 1960 ft | 154 kts | 268° |
| 2026-04-30 20:01 | 64.58807 | 40.95432 | 1817 ft | 154 kts | 278° |
| 2026-04-30 20:01 | 64.58954 | 40.92954 | 1639 ft | 154 kts | 278° |
| 2026-04-30 20:02 | 64.59212 | 40.88019 | 1254 ft | 153 kts | 277° |
| 2026-04-30 20:02 | 64.59336 | 40.85540 | 1052 ft | 152 kts | 277° |
| 2026-04-30 20:03 | 64.59578 | 40.80679 | 650 ft | 151 kts | 277° |
| 2026-04-30 20:03 | 64.59700 | 40.78232 | 447 ft | 151 kts | 277° |
| 2026-04-30 20:03 | 64.59821 | 40.75806 | 246 ft | 150 kts | 277° |
| 2026-04-30 20:03 | 64.59933 | 40.73514 | 80 ft | 129 kts | 276° |
| 2026-04-30 20:04 | 64.60013 | 40.71887 | 76 ft | 66 kts | 276° |
| 2026-04-30 20:04 | 64.60047 | 40.71176 | 75 ft | 29 kts | 276° |
| 2026-04-30 20:04 | 64.60066 | 40.70811 | 75 ft | 18 kts | 277° |
| 2026-04-30 20:05 | 64.60097 | 40.70273 | 75 ft | 16 kts | 277° |
| 2026-04-30 20:05 | 64.60111 | 40.69961 | 75 ft | 23 kts | 276° |
| 2026-04-30 20:05 | 64.60143 | 40.69306 | 75 ft | 11 kts | 290° |
| 2026-04-30 20:06 | 64.60159 | 40.69180 | 75 ft | 2 kts | 282° |
| 2026-04-30 20:06 | 64.60161 | 40.69165 | 75 ft | 0 kts | 279° |
| 2026-04-30 20:06 | 64.60161 | 40.69161 | 75 ft | 0 kts | 264° |
| 2026-04-30 20:06 | 64.60154 | 40.69159 | 75 ft | 1 kts | 149° |
| 2026-04-30 20:07 | 64.60137 | 40.69270 | 75 ft | 29 kts | 98° |
| 2026-04-30 20:07 | 64.60101 | 40.70081 | 76 ft | 53 kts | 96° |
| 2026-04-30 20:07 | 64.60034 | 40.71505 | 75 ft | 37 kts | 96° |
| 2026-04-30 20:08 | 64.60011 | 40.72058 | 75 ft | 31 kts | 96° |
| 2026-04-30 20:08 | 64.59988 | 40.72550 | 75 ft | 33 kts | 97° |
| 2026-04-30 20:08 | 64.59957 | 40.73138 | 75 ft | 40 kts | 97° |
| 2026-04-30 20:08 | 64.59928 | 40.73758 | 75 ft | 33 kts | 97° |
| 2026-04-30 20:09 | 64.59890 | 40.74158 | 75 ft | 18 kts | 127° |
| 2026-04-30 20:09 | 64.59826 | 40.74193 | 75 ft | 11 kts | 183° |
| 2026-04-30 20:09 | 64.59623 | 40.74061 | 75 ft | 0 kts | 263° |
| 2026-04-30 20:10 | 64.59624 | 40.74054 | 75 ft | 0 kts | 304° |